sensor_id;sensor_type;location;lat;lon;timestamp;temperature;humidity
19248;DHT22;9758;48.640;8.148;2022-10-30T00:01:49;19.60;52.80
19248;DHT22;9758;48.640;8.148;2022-10-30T00:04:16;19.50;52.90
19248;DHT22;9758;48.640;8.148;2022-10-30T00:06:43;19.50;52.90
19248;DHT22;9758;48.640;8.148;2022-10-30T00:09:10;19.50;53.00
19248;DHT22;9758;48.640;8.148;2022-10-30T00:11:37;19.40;53.00
19248;DHT22;9758;48.640;8.148;2022-10-30T00:14:05;19.40;53.00
19248;DHT22;9758;48.640;8.148;2022-10-30T00:16:32;19.40;53.00
19248;DHT22;9758;48.640;8.148;2022-10-30T00:18:58;19.40;53.10
19248;DHT22;9758;48.640;8.148;2022-10-30T00:21:25;19.30;53.10
19248;DHT22;9758;48.640;8.148;2022-10-30T00:23:53;19.30;53.10
19248;DHT22;9758;48.640;8.148;2022-10-30T00:26:21;19.30;53.10
19248;DHT22;9758;48.640;8.148;2022-10-30T00:28:49;19.30;53.20
19248;DHT22;9758;48.640;8.148;2022-10-30T00:31:17;19.30;53.10
19248;DHT22;9758;48.640;8.148;2022-10-30T00:33:48;19.30;53.20
19248;DHT22;9758;48.640;8.148;2022-10-30T00:36:14;19.30;53.10
19248;DHT22;9758;48.640;8.148;2022-10-30T00:38:41;19.30;53.00
19248;DHT22;9758;48.640;8.148;2022-10-30T00:41:12;19.40;53.10
19248;DHT22;9758;48.640;8.148;2022-10-30T00:43:39;19.40;52.90
19248;DHT22;9758;48.640;8.148;2022-10-30T00:46:13;19.40;52.90
19248;DHT22;9758;48.640;8.148;2022-10-30T00:48:44;19.50;53.00
19248;DHT22;9758;48.640;8.148;2022-10-30T00:51:14;19.50;52.90
19248;DHT22;9758;48.640;8.148;2022-10-30T00:53:41;19.50;52.90
19248;DHT22;9758;48.640;8.148;2022-10-30T00:56:10;19.50;52.80
19248;DHT22;9758;48.640;8.148;2022-10-30T00:58:43;19.50;52.90
19248;DHT22;9758;48.640;8.148;2022-10-30T01:01:15;19.50;52.80
19248;DHT22;9758;48.640;8.148;2022-10-30T01:03:45;19.50;52.90
19248;DHT22;9758;48.640;8.148;2022-10-30T01:06:14;19.40;52.80
19248;DHT22;9758;48.640;8.148;2022-10-30T01:08:42;19.40;52.90
19248;DHT22;9758;48.640;8.148;2022-10-30T01:11:09;19.30;52.90
19248;DHT22;9758;48.640;8.148;2022-10-30T01:13:37;19.30;52.90
19248;DHT22;9758;48.640;8.148;2022-10-30T01:16:24;19.20;52.90
19248;DHT22;9758;48.640;8.148;2022-10-30T01:18:58;19.20;53.00
19248;DHT22;9758;48.640;8.148;2022-10-30T01:21:35;19.20;52.90
19248;DHT22;9758;48.640;8.148;2022-10-30T01:24:28;19.20;52.90
19248;DHT22;9758;48.640;8.148;2022-10-30T01:27:05;19.20;52.90
19248;DHT22;9758;48.640;8.148;2022-10-30T01:29:43;19.20;52.90
19248;DHT22;9758;48.640;8.148;2022-10-30T01:32:20;19.20;52.80
19248;DHT22;9758;48.640;8.148;2022-10-30T01:34:58;19.20;52.70
19248;DHT22;9758;48.640;8.148;2022-10-30T01:37:32;19.30;52.90
19248;DHT22;9758;48.640;8.148;2022-10-30T01:40:04;19.30;52.90
19248;DHT22;9758;48.640;8.148;2022-10-30T01:42:45;19.30;52.80
19248;DHT22;9758;48.640;8.148;2022-10-30T01:45:16;19.30;52.70
19248;DHT22;9758;48.640;8.148;2022-10-30T01:47:54;19.30;52.70
19248;DHT22;9758;48.640;8.148;2022-10-30T01:50:31;19.30;52.60
19248;DHT22;9758;48.640;8.148;2022-10-30T01:53:07;19.30;53.30
19248;DHT22;9758;48.640;8.148;2022-10-30T01:55:41;19.30;52.60
19248;DHT22;9758;48.640;8.148;2022-10-30T01:58:17;19.30;52.60
19248;DHT22;9758;48.640;8.148;2022-10-30T02:00:49;19.20;52.60
19248;DHT22;9758;48.640;8.148;2022-10-30T02:03:18;19.30;52.60
19248;DHT22;9758;48.640;8.148;2022-10-30T02:05:48;19.30;52.60
19248;DHT22;9758;48.640;8.148;2022-10-30T02:08:15;19.40;52.50
19248;DHT22;9758;48.640;8.148;2022-10-30T02:10:43;19.40;52.50
19248;DHT22;9758;48.640;8.148;2022-10-30T02:13:11;19.40;52.30
19248;DHT22;9758;48.640;8.148;2022-10-30T02:15:38;19.40;52.50
19248;DHT22;9758;48.640;8.148;2022-10-30T02:18:06;19.40;52.50
19248;DHT22;9758;48.640;8.148;2022-10-30T02:20:35;19.40;52.50
19248;DHT22;9758;48.640;8.148;2022-10-30T02:23:02;19.40;52.50
19248;DHT22;9758;48.640;8.148;2022-10-30T02:25:29;19.30;52.50
19248;DHT22;9758;48.640;8.148;2022-10-30T02:27:56;19.30;52.50
19248;DHT22;9758;48.640;8.148;2022-10-30T02:30:23;19.30;52.50
19248;DHT22;9758;48.640;8.148;2022-10-30T02:32:50;19.20;52.60
19248;DHT22;9758;48.640;8.148;2022-10-30T02:35:17;19.20;52.60
19248;DHT22;9758;48.640;8.148;2022-10-30T02:37:46;19.10;52.60
19248;DHT22;9758;48.640;8.148;2022-10-30T02:40:13;19.10;52.70
19248;DHT22;9758;48.640;8.148;2022-10-30T02:42:40;19.00;52.60
19248;DHT22;9758;48.640;8.148;2022-10-30T02:45:08;19.00;52.60
19248;DHT22;9758;48.640;8.148;2022-10-30T02:47:36;18.90;52.60
19248;DHT22;9758;48.640;8.148;2022-10-30T02:50:03;18.90;52.60
19248;DHT22;9758;48.640;8.148;2022-10-30T02:52:31;18.80;52.70
19248;DHT22;9758;48.640;8.148;2022-10-30T02:54:59;18.90;52.50
19248;DHT22;9758;48.640;8.148;2022-10-30T02:57:26;18.90;52.30
19248;DHT22;9758;48.640;8.148;2022-10-30T02:59:52;18.90;52.50
19248;DHT22;9758;48.640;8.148;2022-10-30T03:02:19;19.00;52.60
19248;DHT22;9758;48.640;8.148;2022-10-30T03:04:47;18.90;52.60
19248;DHT22;9758;48.640;8.148;2022-10-30T03:07:14;19.00;52.50
19248;DHT22;9758;48.640;8.148;2022-10-30T03:09:41;19.00;52.50
19248;DHT22;9758;48.640;8.148;2022-10-30T03:12:09;19.00;52.40
19248;DHT22;9758;48.640;8.148;2022-10-30T03:14:35;18.90;52.40
19248;DHT22;9758;48.640;8.148;2022-10-30T03:17:02;18.90;52.40
19248;DHT22;9758;48.640;8.148;2022-10-30T03:19:29;18.90;52.40
19248;DHT22;9758;48.640;8.148;2022-10-30T03:21:56;18.90;52.40
19248;DHT22;9758;48.640;8.148;2022-10-30T03:24:23;19.00;52.50
19248;DHT22;9758;48.640;8.148;2022-10-30T03:26:50;19.00;52.30
19248;DHT22;9758;48.640;8.148;2022-10-30T03:29:18;19.10;53.10
19248;DHT22;9758;48.640;8.148;2022-10-30T03:31:45;19.20;52.30
19248;DHT22;9758;48.640;8.148;2022-10-30T03:34:11;19.20;52.30
19248;DHT22;9758;48.640;8.148;2022-10-30T03:36:38;19.30;52.30
19248;DHT22;9758;48.640;8.148;2022-10-30T03:39:05;19.40;52.20
19248;DHT22;9758;48.640;8.148;2022-10-30T03:41:32;19.40;52.10
19248;DHT22;9758;48.640;8.148;2022-10-30T03:43:59;19.50;52.00
19248;DHT22;9758;48.640;8.148;2022-10-30T03:46:27;19.60;51.90
19248;DHT22;9758;48.640;8.148;2022-10-30T03:48:55;19.60;51.80
19248;DHT22;9758;48.640;8.148;2022-10-30T03:51:22;19.70;51.70
19248;DHT22;9758;48.640;8.148;2022-10-30T03:53:49;19.70;51.70
19248;DHT22;9758;48.640;8.148;2022-10-30T03:56:16;19.80;51.60
19248;DHT22;9758;48.640;8.148;2022-10-30T03:58:44;19.80;51.50
19248;DHT22;9758;48.640;8.148;2022-10-30T04:01:11;19.80;51.30
19248;DHT22;9758;48.640;8.148;2022-10-30T04:03:39;19.80;51.50
19248;DHT22;9758;48.640;8.148;2022-10-30T04:06:06;19.80;51.50
19248;DHT22;9758;48.640;8.148;2022-10-30T04:08:33;19.80;51.40
19248;DHT22;9758;48.640;8.148;2022-10-30T04:10:59;19.90;51.40
19248;DHT22;9758;48.640;8.148;2022-10-30T04:13:26;19.90;51.20
19248;DHT22;9758;48.640;8.148;2022-10-30T04:15:53;19.90;51.20
19248;DHT22;9758;48.640;8.148;2022-10-30T04:18:20;19.80;51.20
19248;DHT22;9758;48.640;8.148;2022-10-30T04:20:48;19.90;51.10
19248;DHT22;9758;48.640;8.148;2022-10-30T04:23:16;19.90;51.30
19248;DHT22;9758;48.640;8.148;2022-10-30T04:25:43;19.90;51.10
19248;DHT22;9758;48.640;8.148;2022-10-30T04:28:12;19.90;51.80
19248;DHT22;9758;48.640;8.148;2022-10-30T04:30:38;19.90;51.10
19248;DHT22;9758;48.640;8.148;2022-10-30T04:33:07;19.90;51.10
19248;DHT22;9758;48.640;8.148;2022-10-30T04:35:36;19.90;51.20
19248;DHT22;9758;48.640;8.148;2022-10-30T04:38:06;20.00;51.20
19248;DHT22;9758;48.640;8.148;2022-10-30T04:40:36;19.90;51.10
19248;DHT22;9758;48.640;8.148;2022-10-30T04:43:04;19.90;51.10
19248;DHT22;9758;48.640;8.148;2022-10-30T04:45:31;20.00;51.00
19248;DHT22;9758;48.640;8.148;2022-10-30T04:48:02;20.00;51.00
19248;DHT22;9758;48.640;8.148;2022-10-30T04:50:30;20.00;51.00
19248;DHT22;9758;48.640;8.148;2022-10-30T04:53:04;20.00;51.60
19248;DHT22;9758;48.640;8.148;2022-10-30T04:55:31;20.00;50.90
19248;DHT22;9758;48.640;8.148;2022-10-30T04:57:59;20.00;50.90
19248;DHT22;9758;48.640;8.148;2022-10-30T05:00:28;20.00;50.80
19248;DHT22;9758;48.640;8.148;2022-10-30T05:02:57;20.00;50.70
19248;DHT22;9758;48.640;8.148;2022-10-30T05:05:24;20.00;50.70
19248;DHT22;9758;48.640;8.148;2022-10-30T05:07:51;20.00;50.70
19248;DHT22;9758;48.640;8.148;2022-10-30T05:10:19;20.10;50.70
19248;DHT22;9758;48.640;8.148;2022-10-30T05:12:46;20.00;50.60
19248;DHT22;9758;48.640;8.148;2022-10-30T05:15:13;20.00;50.50
19248;DHT22;9758;48.640;8.148;2022-10-30T05:17:40;20.00;50.30
19248;DHT22;9758;48.640;8.148;2022-10-30T05:20:08;20.00;50.60
19248;DHT22;9758;48.640;8.148;2022-10-30T05:22:35;20.00;50.20
19248;DHT22;9758;48.640;8.148;2022-10-30T05:25:02;20.00;50.20
19248;DHT22;9758;48.640;8.148;2022-10-30T05:27:30;20.00;50.20
19248;DHT22;9758;48.640;8.148;2022-10-30T05:29:57;20.00;50.50
19248;DHT22;9758;48.640;8.148;2022-10-30T05:32:24;19.90;50.50
19248;DHT22;9758;48.640;8.148;2022-10-30T05:34:51;20.00;50.50
19248;DHT22;9758;48.640;8.148;2022-10-30T05:37:18;20.00;50.50
19248;DHT22;9758;48.640;8.148;2022-10-30T05:39:45;20.00;50.90
19248;DHT22;9758;48.640;8.148;2022-10-30T05:42:11;19.90;50.40
19248;DHT22;9758;48.640;8.148;2022-10-30T05:44:40;20.00;50.40
19248;DHT22;9758;48.640;8.148;2022-10-30T05:47:07;20.00;50.40
19248;DHT22;9758;48.640;8.148;2022-10-30T05:49:33;20.00;50.50
19248;DHT22;9758;48.640;8.148;2022-10-30T05:52:00;19.90;50.40
19248;DHT22;9758;48.640;8.148;2022-10-30T05:54:27;20.00;50.40
19248;DHT22;9758;48.640;8.148;2022-10-30T05:56:56;19.90;50.30
19248;DHT22;9758;48.640;8.148;2022-10-30T05:59:22;20.00;50.40
19248;DHT22;9758;48.640;8.148;2022-10-30T06:01:51;19.90;50.30
19248;DHT22;9758;48.640;8.148;2022-10-30T06:04:17;20.00;50.40
19248;DHT22;9758;48.640;8.148;2022-10-30T06:06:45;20.00;50.40
19248;DHT22;9758;48.640;8.148;2022-10-30T06:09:11;20.00;50.30
19248;DHT22;9758;48.640;8.148;2022-10-30T06:11:38;20.00;50.40
19248;DHT22;9758;48.640;8.148;2022-10-30T06:14:05;19.90;50.20
19248;DHT22;9758;48.640;8.148;2022-10-30T06:16:32;19.90;50.30
19248;DHT22;9758;48.640;8.148;2022-10-30T06:19:00;19.90;50.30
19248;DHT22;9758;48.640;8.148;2022-10-30T06:21:27;19.90;50.30
19248;DHT22;9758;48.640;8.148;2022-10-30T06:23:53;19.90;50.30
19248;DHT22;9758;48.640;8.148;2022-10-30T06:26:20;19.90;50.90
19248;DHT22;9758;48.640;8.148;2022-10-30T06:28:47;19.90;50.30
19248;DHT22;9758;48.640;8.148;2022-10-30T06:31:14;19.90;50.20
19248;DHT22;9758;48.640;8.148;2022-10-30T06:33:41;19.90;50.30
19248;DHT22;9758;48.640;8.148;2022-10-30T06:36:09;19.90;50.20
19248;DHT22;9758;48.640;8.148;2022-10-30T06:38:36;19.90;50.30
19248;DHT22;9758;48.640;8.148;2022-10-30T06:41:02;19.80;50.20
19248;DHT22;9758;48.640;8.148;2022-10-30T06:43:29;19.90;50.10
19248;DHT22;9758;48.640;8.148;2022-10-30T06:45:57;19.90;49.90
19248;DHT22;9758;48.640;8.148;2022-10-30T06:48:23;19.90;50.00
19248;DHT22;9758;48.640;8.148;2022-10-30T06:50:53;19.90;49.70
19248;DHT22;9758;48.640;8.148;2022-10-30T06:53:21;19.90;50.10
19248;DHT22;9758;48.640;8.148;2022-10-30T06:55:53;20.00;50.20
19248;DHT22;9758;48.640;8.148;2022-10-30T06:58:21;19.90;50.00
19248;DHT22;9758;48.640;8.148;2022-10-30T07:00:48;20.00;49.90
19248;DHT22;9758;48.640;8.148;2022-10-30T07:03:15;20.00;49.90
19248;DHT22;9758;48.640;8.148;2022-10-30T07:05:42;20.00;50.00
19248;DHT22;9758;48.640;8.148;2022-10-30T07:08:09;20.10;49.70
19248;DHT22;9758;48.640;8.148;2022-10-30T07:10:39;20.10;49.90
19248;DHT22;9758;48.640;8.148;2022-10-30T07:13:06;20.10;50.00
19248;DHT22;9758;48.640;8.148;2022-10-30T07:15:33;20.10;50.00
19248;DHT22;9758;48.640;8.148;2022-10-30T07:18:02;20.10;49.90
19248;DHT22;9758;48.640;8.148;2022-10-30T07:20:31;20.10;49.90
19248;DHT22;9758;48.640;8.148;2022-10-30T07:22:58;20.10;50.60
19248;DHT22;9758;48.640;8.148;2022-10-30T07:25:25;20.10;50.00
19248;DHT22;9758;48.640;8.148;2022-10-30T07:27:54;20.10;49.90
19248;DHT22;9758;48.640;8.148;2022-10-30T07:30:22;20.10;49.90
19248;DHT22;9758;48.640;8.148;2022-10-30T07:32:57;20.10;49.80
19248;DHT22;9758;48.640;8.148;2022-10-30T07:35:24;20.10;50.00
19248;DHT22;9758;48.640;8.148;2022-10-30T07:37:51;20.10;50.00
19248;DHT22;9758;48.640;8.148;2022-10-30T07:40:18;20.20;50.00
19248;DHT22;9758;48.640;8.148;2022-10-30T07:42:45;20.20;50.10
19248;DHT22;9758;48.640;8.148;2022-10-30T07:45:13;20.20;50.00
19248;DHT22;9758;48.640;8.148;2022-10-30T07:47:40;20.20;50.00
19248;DHT22;9758;48.640;8.148;2022-10-30T07:50:08;20.20;50.00
19248;DHT22;9758;48.640;8.148;2022-10-30T07:52:34;20.20;50.10
19248;DHT22;9758;48.640;8.148;2022-10-30T07:55:01;20.20;50.20
19248;DHT22;9758;48.640;8.148;2022-10-30T07:57:30;20.30;50.90
19248;DHT22;9758;48.640;8.148;2022-10-30T07:59:57;20.30;50.10
19248;DHT22;9758;48.640;8.148;2022-10-30T08:02:25;20.30;50.10
19248;DHT22;9758;48.640;8.148;2022-10-30T08:04:52;20.40;50.10
19248;DHT22;9758;48.640;8.148;2022-10-30T08:07:19;20.40;50.10
19248;DHT22;9758;48.640;8.148;2022-10-30T08:09:46;20.40;50.10
19248;DHT22;9758;48.640;8.148;2022-10-30T08:12:14;20.40;50.10
19248;DHT22;9758;48.640;8.148;2022-10-30T08:14:40;20.50;50.20
19248;DHT22;9758;48.640;8.148;2022-10-30T08:17:07;20.50;50.20
19248;DHT22;9758;48.640;8.148;2022-10-30T08:19:36;20.60;50.20
19248;DHT22;9758;48.640;8.148;2022-10-30T08:22:03;20.60;50.20
19248;DHT22;9758;48.640;8.148;2022-10-30T08:24:30;20.70;50.20
19248;DHT22;9758;48.640;8.148;2022-10-30T08:26:56;20.80;50.20
19248;DHT22;9758;48.640;8.148;2022-10-30T08:29:23;20.70;50.20
19248;DHT22;9758;48.640;8.148;2022-10-30T08:31:50;20.80;50.20
19248;DHT22;9758;48.640;8.148;2022-10-30T08:34:17;20.80;50.20
19248;DHT22;9758;48.640;8.148;2022-10-30T08:36:47;20.90;50.20
19248;DHT22;9758;48.640;8.148;2022-10-30T08:39:14;20.90;50.20
19248;DHT22;9758;48.640;8.148;2022-10-30T08:41:40;21.00;50.20
19248;DHT22;9758;48.640;8.148;2022-10-30T08:44:07;21.00;50.00
19248;DHT22;9758;48.640;8.148;2022-10-30T08:46:34;21.00;50.00
19248;DHT22;9758;48.640;8.148;2022-10-30T08:49:01;21.10;50.10
19248;DHT22;9758;48.640;8.148;2022-10-30T08:51:31;21.20;50.20
19248;DHT22;9758;48.640;8.148;2022-10-30T08:53:59;21.30;50.20
19248;DHT22;9758;48.640;8.148;2022-10-30T08:56:26;21.30;50.20
19248;DHT22;9758;48.640;8.148;2022-10-30T08:58:53;21.40;50.20
19248;DHT22;9758;48.640;8.148;2022-10-30T09:01:20;21.50;50.20
19248;DHT22;9758;48.640;8.148;2022-10-30T09:03:47;21.50;50.10
19248;DHT22;9758;48.640;8.148;2022-10-30T09:06:14;21.60;50.00
19248;DHT22;9758;48.640;8.148;2022-10-30T09:08:41;21.70;50.00
19248;DHT22;9758;48.640;8.148;2022-10-30T09:11:09;21.70;50.00
19248;DHT22;9758;48.640;8.148;2022-10-30T09:13:36;21.70;49.90
19248;DHT22;9758;48.640;8.148;2022-10-30T09:16:03;21.80;50.00
19248;DHT22;9758;48.640;8.148;2022-10-30T09:18:40;21.80;50.00
19248;DHT22;9758;48.640;8.148;2022-10-30T09:21:07;21.90;50.00
19248;DHT22;9758;48.640;8.148;2022-10-30T09:23:34;21.90;50.00
19248;DHT22;9758;48.640;8.148;2022-10-30T09:26:01;21.90;49.70
19248;DHT22;9758;48.640;8.148;2022-10-30T09:28:29;21.90;49.90
19248;DHT22;9758;48.640;8.148;2022-10-30T09:30:56;21.90;49.90
19248;DHT22;9758;48.640;8.148;2022-10-30T09:33:23;21.90;49.90
19248;DHT22;9758;48.640;8.148;2022-10-30T09:35:49;21.80;49.90
19248;DHT22;9758;48.640;8.148;2022-10-30T09:38:16;21.80;50.00
19248;DHT22;9758;48.640;8.148;2022-10-30T09:40:56;21.80;50.00
19248;DHT22;9758;48.640;8.148;2022-10-30T09:43:37;21.70;50.10
19248;DHT22;9758;48.640;8.148;2022-10-30T09:46:20;21.80;50.80
19248;DHT22;9758;48.640;8.148;2022-10-30T09:49:02;21.80;50.10
19248;DHT22;9758;48.640;8.148;2022-10-30T09:54:39;21.80;49.90
19248;DHT22;9758;48.640;8.148;2022-10-30T09:57:15;21.80;50.10
19248;DHT22;9758;48.640;8.148;2022-10-30T09:59:53;21.90;50.10
19248;DHT22;9758;48.640;8.148;2022-10-30T10:02:31;21.90;50.10
19248;DHT22;9758;48.640;8.148;2022-10-30T10:05:05;22.00;50.10
19248;DHT22;9758;48.640;8.148;2022-10-30T10:07:40;22.00;50.10
19248;DHT22;9758;48.640;8.148;2022-10-30T10:10:13;22.10;50.10
19248;DHT22;9758;48.640;8.148;2022-10-30T10:12:44;22.20;50.10
19248;DHT22;9758;48.640;8.148;2022-10-30T10:15:18;22.20;50.70
19248;DHT22;9758;48.640;8.148;2022-10-30T10:17:46;22.30;50.00
19248;DHT22;9758;48.640;8.148;2022-10-30T10:20:29;22.40;50.00
19248;DHT22;9758;48.640;8.148;2022-10-30T10:22:58;22.40;50.00
19248;DHT22;9758;48.640;8.148;2022-10-30T10:25:30;22.50;50.00
19248;DHT22;9758;48.640;8.148;2022-10-30T10:28:06;22.50;49.90
19248;DHT22;9758;48.640;8.148;2022-10-30T10:30:51;22.60;49.80
19248;DHT22;9758;48.640;8.148;2022-10-30T10:33:28;22.60;49.80
19248;DHT22;9758;48.640;8.148;2022-10-30T10:36:04;22.70;49.90
19248;DHT22;9758;48.640;8.148;2022-10-30T10:38:45;22.70;49.90
19248;DHT22;9758;48.640;8.148;2022-10-30T10:41:18;22.80;49.90
19248;DHT22;9758;48.640;8.148;2022-10-30T10:43:59;22.80;49.80
19248;DHT22;9758;48.640;8.148;2022-10-30T10:46:39;22.80;49.70
19248;DHT22;9758;48.640;8.148;2022-10-30T10:49:19;22.80;49.70
19248;DHT22;9758;48.640;8.148;2022-10-30T10:51:51;22.80;49.80
19248;DHT22;9758;48.640;8.148;2022-10-30T10:54:22;22.90;49.80
19248;DHT22;9758;48.640;8.148;2022-10-30T10:56:51;22.90;49.90
19248;DHT22;9758;48.640;8.148;2022-10-30T10:59:20;23.00;49.90
19248;DHT22;9758;48.640;8.148;2022-10-30T11:01:55;23.10;50.00
19248;DHT22;9758;48.640;8.148;2022-10-30T11:04:29;23.10;49.90
19248;DHT22;9758;48.640;8.148;2022-10-30T11:06:57;23.20;49.80
19248;DHT22;9758;48.640;8.148;2022-10-30T11:09:27;23.30;49.80
19248;DHT22;9758;48.640;8.148;2022-10-30T11:11:54;23.40;49.70
19248;DHT22;9758;48.640;8.148;2022-10-30T11:14:23;23.40;49.60
19248;DHT22;9758;48.640;8.148;2022-10-30T11:16:59;23.40;50.10
19248;DHT22;9758;48.640;8.148;2022-10-30T11:19:28;23.40;49.40
19248;DHT22;9758;48.640;8.148;2022-10-30T11:21:57;23.40;49.60
19248;DHT22;9758;48.640;8.148;2022-10-30T11:24:27;23.40;49.80
19248;DHT22;9758;48.640;8.148;2022-10-30T11:26:55;23.40;49.70
19248;DHT22;9758;48.640;8.148;2022-10-30T11:29:23;23.30;49.70
19248;DHT22;9758;48.640;8.148;2022-10-30T11:32:00;23.30;49.80
19248;DHT22;9758;48.640;8.148;2022-10-30T11:34:32;23.30;49.90
19248;DHT22;9758;48.640;8.148;2022-10-30T11:37:00;23.30;49.90
19248;DHT22;9758;48.640;8.148;2022-10-30T11:39:28;23.30;49.90
19248;DHT22;9758;48.640;8.148;2022-10-30T11:41:58;23.40;49.90
19248;DHT22;9758;48.640;8.148;2022-10-30T11:44:29;23.40;50.00
19248;DHT22;9758;48.640;8.148;2022-10-30T11:46:57;23.40;50.00
19248;DHT22;9758;48.640;8.148;2022-10-30T11:49:31;23.50;50.00
19248;DHT22;9758;48.640;8.148;2022-10-30T11:51:58;23.50;50.00
19248;DHT22;9758;48.640;8.148;2022-10-30T11:54:26;23.50;50.00
19248;DHT22;9758;48.640;8.148;2022-10-30T11:56:53;23.50;50.00
19248;DHT22;9758;48.640;8.148;2022-10-30T11:59:22;23.60;50.00
19248;DHT22;9758;48.640;8.148;2022-10-30T12:01:58;23.60;50.00
19248;DHT22;9758;48.640;8.148;2022-10-30T12:04:27;23.60;50.00
19248;DHT22;9758;48.640;8.148;2022-10-30T12:07:07;23.60;50.00
19248;DHT22;9758;48.640;8.148;2022-10-30T12:09:41;23.60;50.00
19248;DHT22;9758;48.640;8.148;2022-10-30T12:12:14;23.60;50.00
19248;DHT22;9758;48.640;8.148;2022-10-30T12:14:44;23.60;50.00
19248;DHT22;9758;48.640;8.148;2022-10-30T12:17:13;23.70;50.10
19248;DHT22;9758;48.640;8.148;2022-10-30T12:19:47;23.80;50.10
19248;DHT22;9758;48.640;8.148;2022-10-30T12:22:27;23.80;50.00
19248;DHT22;9758;48.640;8.148;2022-10-30T12:24:56;23.80;49.90
19248;DHT22;9758;48.640;8.148;2022-10-30T12:27:23;23.70;50.00
19248;DHT22;9758;48.640;8.148;2022-10-30T12:30:05;23.70;50.00
19248;DHT22;9758;48.640;8.148;2022-10-30T12:32:38;23.70;50.10
19248;DHT22;9758;48.640;8.148;2022-10-30T12:35:32;23.70;50.10
19248;DHT22;9758;48.640;8.148;2022-10-30T12:38:02;23.70;50.10
19248;DHT22;9758;48.640;8.148;2022-10-30T12:40:30;23.80;50.10
19248;DHT22;9758;48.640;8.148;2022-10-30T12:43:09;23.80;50.10
19248;DHT22;9758;48.640;8.148;2022-10-30T12:45:40;23.90;50.10
19248;DHT22;9758;48.640;8.148;2022-10-30T12:48:15;24.00;50.10
19248;DHT22;9758;48.640;8.148;2022-10-30T12:50:49;24.00;50.10
19248;DHT22;9758;48.640;8.148;2022-10-30T12:53:24;24.00;50.00
19248;DHT22;9758;48.640;8.148;2022-10-30T12:55:57;23.90;50.00
19248;DHT22;9758;48.640;8.148;2022-10-30T12:58:32;23.90;50.10
19248;DHT22;9758;48.640;8.148;2022-10-30T13:01:08;23.90;50.20
19248;DHT22;9758;48.640;8.148;2022-10-30T13:03:41;24.00;50.20
19248;DHT22;9758;48.640;8.148;2022-10-30T13:06:15;24.10;50.30
19248;DHT22;9758;48.640;8.148;2022-10-30T13:08:48;24.10;50.20
19248;DHT22;9758;48.640;8.148;2022-10-30T13:11:24;24.20;50.10
19248;DHT22;9758;48.640;8.148;2022-10-30T13:13:54;24.30;50.20
19248;DHT22;9758;48.640;8.148;2022-10-30T13:16:26;24.30;50.20
19248;DHT22;9758;48.640;8.148;2022-10-30T13:18:55;24.40;50.10
19248;DHT22;9758;48.640;8.148;2022-10-30T13:21:29;24.40;50.10
19248;DHT22;9758;48.640;8.148;2022-10-30T13:24:01;24.40;50.20
19248;DHT22;9758;48.640;8.148;2022-10-30T13:26:35;24.50;50.20
19248;DHT22;9758;48.640;8.148;2022-10-30T13:29:11;24.50;50.20
19248;DHT22;9758;48.640;8.148;2022-10-30T13:31:49;24.60;50.20
19248;DHT22;9758;48.640;8.148;2022-10-30T13:34:30;24.70;50.20
19248;DHT22;9758;48.640;8.148;2022-10-30T13:37:06;24.70;50.20
19248;DHT22;9758;48.640;8.148;2022-10-30T13:39:39;24.70;50.20
19248;DHT22;9758;48.640;8.148;2022-10-30T13:42:18;24.80;50.10
19248;DHT22;9758;48.640;8.148;2022-10-30T13:44:58;24.80;50.10
19248;DHT22;9758;48.640;8.148;2022-10-30T13:47:32;24.80;50.00
19248;DHT22;9758;48.640;8.148;2022-10-30T13:50:16;24.80;50.10
19248;DHT22;9758;48.640;8.148;2022-10-30T13:52:50;24.90;50.20
19248;DHT22;9758;48.640;8.148;2022-10-30T13:55:21;24.90;50.10
19248;DHT22;9758;48.640;8.148;2022-10-30T13:57:54;24.90;50.10
19248;DHT22;9758;48.640;8.148;2022-10-30T14:00:27;24.90;50.10
19248;DHT22;9758;48.640;8.148;2022-10-30T14:05:54;24.90;50.10
19248;DHT22;9758;48.640;8.148;2022-10-30T14:08:27;24.90;50.20
19248;DHT22;9758;48.640;8.148;2022-10-30T14:10:57;24.90;50.30
19248;DHT22;9758;48.640;8.148;2022-10-30T14:13:25;24.90;50.30
19248;DHT22;9758;48.640;8.148;2022-10-30T14:15:54;25.00;50.40
19248;DHT22;9758;48.640;8.148;2022-10-30T14:18:57;25.00;50.30
19248;DHT22;9758;48.640;8.148;2022-10-30T14:21:39;25.10;50.40
19248;DHT22;9758;48.640;8.148;2022-10-30T14:24:20;25.20;50.30
19248;DHT22;9758;48.640;8.148;2022-10-30T14:26:49;25.20;50.20
19248;DHT22;9758;48.640;8.148;2022-10-30T14:29:36;25.30;50.20
19248;DHT22;9758;48.640;8.148;2022-10-30T14:32:37;25.30;50.70
19248;DHT22;9758;48.640;8.148;2022-10-30T14:35:35;25.30;50.00
19248;DHT22;9758;48.640;8.148;2022-10-30T14:38:25;25.30;50.00
19248;DHT22;9758;48.640;8.148;2022-10-30T14:43:51;25.30;50.10
19248;DHT22;9758;48.640;8.148;2022-10-30T14:46:26;25.30;50.00
19248;DHT22;9758;48.640;8.148;2022-10-30T14:49:00;25.30;50.00
19248;DHT22;9758;48.640;8.148;2022-10-30T14:51:34;25.20;50.00
19248;DHT22;9758;48.640;8.148;2022-10-30T14:54:09;25.20;50.00
19248;DHT22;9758;48.640;8.148;2022-10-30T14:56:45;25.10;50.00
19248;DHT22;9758;48.640;8.148;2022-10-30T14:59:24;25.00;50.00
19248;DHT22;9758;48.640;8.148;2022-10-30T15:02:11;24.90;50.00
19248;DHT22;9758;48.640;8.148;2022-10-30T15:04:52;24.80;50.10
19248;DHT22;9758;48.640;8.148;2022-10-30T15:07:28;24.70;50.20
19248;DHT22;9758;48.640;8.148;2022-10-30T15:10:09;24.60;50.30
19248;DHT22;9758;48.640;8.148;2022-10-30T15:12:55;24.50;50.30
19248;DHT22;9758;48.640;8.148;2022-10-30T15:15:24;24.40;50.40
19248;DHT22;9758;48.640;8.148;2022-10-30T15:17:54;24.30;50.40
19248;DHT22;9758;48.640;8.148;2022-10-30T15:20:23;24.20;50.40
19248;DHT22;9758;48.640;8.148;2022-10-30T15:22:52;24.10;50.40
19248;DHT22;9758;48.640;8.148;2022-10-30T15:25:21;24.00;50.50
19248;DHT22;9758;48.640;8.148;2022-10-30T15:27:52;23.90;50.60
19248;DHT22;9758;48.640;8.148;2022-10-30T15:30:22;23.80;50.60
19248;DHT22;9758;48.640;8.148;2022-10-30T15:32:49;23.70;50.70
19248;DHT22;9758;48.640;8.148;2022-10-30T15:35:18;23.60;50.70
19248;DHT22;9758;48.640;8.148;2022-10-30T15:38:02;23.40;50.70
19248;DHT22;9758;48.640;8.148;2022-10-30T15:40:29;23.40;50.80
19248;DHT22;9758;48.640;8.148;2022-10-30T15:42:58;23.30;50.80
19248;DHT22;9758;48.640;8.148;2022-10-30T15:45:31;23.20;50.80
19248;DHT22;9758;48.640;8.148;2022-10-30T15:48:05;23.10;50.80
19248;DHT22;9758;48.640;8.148;2022-10-30T15:50:34;23.00;50.80
19248;DHT22;9758;48.640;8.148;2022-10-30T15:53:03;23.00;50.80
19248;DHT22;9758;48.640;8.148;2022-10-30T15:55:31;22.90;50.80
19248;DHT22;9758;48.640;8.148;2022-10-30T15:58:02;22.80;50.90
19248;DHT22;9758;48.640;8.148;2022-10-30T16:00:32;22.70;50.80
19248;DHT22;9758;48.640;8.148;2022-10-30T16:03:01;22.60;50.80
19248;DHT22;9758;48.640;8.148;2022-10-30T16:05:29;22.50;50.80
19248;DHT22;9758;48.640;8.148;2022-10-30T16:07:57;22.40;50.90
19248;DHT22;9758;48.640;8.148;2022-10-30T16:10:26;22.30;50.90
19248;DHT22;9758;48.640;8.148;2022-10-30T16:12:57;22.30;51.00
19248;DHT22;9758;48.640;8.148;2022-10-30T16:15:27;22.20;51.00